Time;durP1;ratioP1;P1;durP2;ratioP2;P2;SDS_P1;SDS_P2;PMS_P1;PMS_P2;Temp;Humidity;BMP_temperature;BMP_pressure;BME280_temperature;BME280_humidity;BME280_pressure;Samples;Min_cycle;Max_cycle;Signal;HPM_P1;HPM_P2
2022/03/09 00:01:58;;;;;;;21.05;10.55;;;;;;;-142.75;100.00;78976.50;5011474;28;20081;-67
2022/03/09 00:04:23;;;;;;;21.70;10.30;;;;;;;-142.75;100.00;78976.50;5012472;28;20537;-67
2022/03/09 00:06:48;;;;;;;17.95;10.65;;;;;;;-142.75;100.00;78996.19;5012718;28;20022;-67
2022/03/09 00:09:14;;;;;;;18.93;10.37;;;;;;;-142.75;100.00;78996.19;5012367;28;20808;-67
2022/03/09 00:11:40;;;;;;;20.02;10.40;;;;;;;-142.75;100.00;78996.19;5011303;28;20281;-66
2022/03/09 00:14:05;;;;;;;;;;;;;;;-142.75;100.00;79004.06;5013032;28;20403;-67
2022/03/09 00:16:31;;;;;;;20.90;10.40;;;;;;;-142.75;100.00;78998.16;5012324;28;19917;-67
2022/03/09 00:18:56;;;;;;;18.13;10.43;;;;;;;-142.75;100.00;79015.88;5012012;28;20029;-67
2022/03/09 00:21:21;;;;;;;21.13;11.48;;;;;;;-142.75;100.00;79027.69;5012261;28;20455;-67
2022/03/09 00:23:47;;;;;;;17.88;9.73;;;;;;;-142.75;100.00;79023.75;5012322;28;20049;-67
2022/03/09 00:26:13;;;;;;;18.67;9.32;;;;;;;-142.75;100.00;79025.72;5011788;28;20503;-67
2022/03/09 00:28:38;;;;;;;18.83;9.45;;;;;;;-142.75;100.00;79031.66;5012347;28;20064;-67
2022/03/09 00:31:04;;;;;;;14.95;9.57;;;;;;;-142.75;100.00;79033.63;5012455;28;20049;-67
2022/03/09 00:33:29;;;;;;;15.93;9.68;;;;;;;-142.75;100.00;79029.66;5012366;28;20036;-67
2022/03/09 00:35:54;;;;;;;20.07;11.07;;;;;;;-142.75;100.00;79021.78;5012636;28;20040;-67
2022/03/09 00:38:20;;;;;;;17.40;9.83;;;;;;;-142.75;100.00;79021.78;5012050;28;20276;-67
2022/03/09 00:40:48;;;;;;;20.10;10.43;;;;;;;-142.75;100.00;79037.56;5012141;28;20110;-67
2022/03/09 00:43:15;;;;;;;18.17;9.80;;;;;;;-142.75;100.00;79051.34;5012329;28;20519;-67
2022/03/09 00:45:40;;;;;;;16.70;10.27;;;;;;;-142.75;100.00;79047.41;5012372;28;20017;-67
2022/03/09 00:48:05;;;;;;;19.77;10.80;;;;;;;-142.75;100.00;79029.66;5011763;28;20108;-67
2022/03/09 00:50:31;;;;;;;16.95;10.68;;;;;;;-142.75;100.00;79035.59;5012158;28;20018;-67
2022/03/09 00:52:56;;;;;;;20.60;10.40;;;;;;;-142.75;100.00;79035.59;5011958;28;20514;-67
2022/03/09 00:55:21;;;;;;;16.52;10.10;;;;;;;-142.75;100.00;79043.47;5010798;28;20022;-67
2022/03/09 00:57:47;;;;;;;26.23;10.35;;;;;;;-142.75;100.00;79047.41;5011747;28;20037;-67
2022/03/09 01:00:13;;;;;;;17.38;9.90;;;;;;;-142.75;100.00;79067.09;5011939;28;20395;-67
2022/03/09 01:02:43;;;;;;;16.10;9.77;;;;;;;-142.75;100.00;79071.03;5011801;28;20041;-67
2022/03/09 01:05:09;;;;;;;17.63;9.43;;;;;;;-142.75;100.00;79074.97;5011850;28;20541;-67
2022/03/09 01:07:34;;;;;;;19.65;10.48;;;;;;;-142.75;100.00;79074.97;5011791;28;20022;-67
2022/03/09 01:09:59;;;;;;;16.70;9.55;;;;;;;-142.75;100.00;79076.94;5011503;28;20026;-67
2022/03/09 01:12:25;;;;;;;16.77;9.73;;;;;;;-142.75;100.00;79071.03;5011623;28;20038;-67
2022/03/09 01:14:50;;;;;;;22.13;10.73;;;;;;;-142.75;100.00;79074.97;5011558;28;20331;-67
2022/03/09 01:17:15;;;;;;;18.80;10.80;;;;;;;-142.75;100.00;79076.94;5011724;28;20777;-67
2022/03/09 01:19:40;;;;;;;17.03;9.60;;;;;;;-142.75;100.00;79084.81;5010200;28;20030;-67
2022/03/09 01:22:06;;;;;;;16.17;9.50;;;;;;;-142.75;100.00;79074.97;5011499;28;20291;-67
2022/03/09 01:24:31;;;;;;;18.88;9.73;;;;;;;-142.75;100.00;79082.84;5011601;28;20033;-67
2022/03/09 01:26:56;;;;;;;17.03;9.53;;;;;;;-142.75;100.00;79074.97;5011560;28;20022;-67
2022/03/09 01:29:21;;;;;;;17.80;10.17;;;;;;;-142.75;100.00;79078.91;5011235;28;20359;-67
2022/03/09 01:31:47;;;;;;;21.87;10.87;;;;;;;-142.75;100.00;79074.97;5011209;28;20351;-67
2022/03/09 01:34:12;;;;;;;18.63;10.35;;;;;;;-142.75;100.00;79082.84;5011263;28;20029;-67
2022/03/09 01:36:37;;;;;;;19.23;10.03;;;;;;;-142.75;100.00;79082.84;5010626;28;20472;-67
2022/03/09 01:39:03;;;;;;;17.80;10.30;;;;;;;-142.75;100.00;79078.91;5011267;28;20272;-66
2022/03/09 01:41:29;;;;;;;16.20;10.35;;;;;;;-142.75;100.00;79082.84;5011544;28;20311;-67
2022/03/09 01:44:14;;;;;;;20.48;10.07;;;;;;;-142.75;100.00;79078.91;5009941;28;20032;-67
2022/03/09 01:46:40;;;;;;;16.80;9.87;;;;;;;-142.75;100.00;79090.72;5010996;28;20411;-67
2022/03/09 01:49:07;;;;;;;16.37;9.53;;;;;;;-142.75;100.00;79098.63;5010687;28;20582;-67
2022/03/09 01:51:35;;;;;;;17.17;9.37;;;;;;;-142.75;100.00;79092.69;5010939;28;20022;-67
2022/03/09 01:54:00;;;;;;;17.03;9.93;;;;;;;-142.75;100.00;79104.53;5010914;28;20022;-67
2022/03/09 01:56:27;;;;;;;18.65;10.70;;;;;;;-142.75;100.00;79098.63;5009629;28;20752;-67
2022/03/09 01:58:52;;;;;;;17.77;10.23;;;;;;;-142.75;100.00;79106.50;5010525;28;20112;-67
2022/03/09 02:01:17;;;;;;;18.08;9.68;;;;;;;-142.75;100.00;79098.63;5010822;28;20464;-67
2022/03/09 02:03:42;;;;;;;16.67;10.13;;;;;;;-142.75;100.00;79094.69;5009572;28;20025;-67
2022/03/09 02:06:09;;;;;;;19.33;10.37;;;;;;;-142.75;100.00;79094.69;5010850;28;20022;-66
2022/03/09 02:11:19;;;;;;;18.70;10.33;;;;;;;-142.75;100.00;79086.78;5010807;28;20123;-66
2022/03/09 02:13:44;;;;;;;;;;;;;;;-142.75;100.00;79076.94;5011159;28;20093;-67
2022/03/09 02:16:14;;;;;;;18.43;9.77;;;;;;;-142.75;100.00;79074.97;5010645;28;20015;-67
2022/03/09 02:18:39;;;;;;;17.37;9.70;;;;;;;-142.75;100.00;79074.97;5010597;28;20033;-67
2022/03/09 02:21:07;;;;;;;18.33;10.48;;;;;;;-142.75;100.00;79074.97;5009568;28;20523;-67
2022/03/09 02:23:32;;;;;;;19.60;9.37;;;;;;;-142.75;100.00;79074.97;5010831;28;20025;-67
2022/03/09 02:25:57;;;;;;;15.68;9.80;;;;;;;-142.75;100.00;79080.88;5009406;28;20037;-67
2022/03/09 02:28:23;;;;;;;19.20;10.97;;;;;;;-142.75;100.00;79084.81;5009487;28;20034;-68
2022/03/09 02:30:54;;;;;;;25.47;9.83;;;;;;;-142.75;100.00;79098.63;5009614;28;20280;-67
2022/03/09 02:33:19;;;;;;;17.33;9.40;;;;;;;-142.75;100.00;79104.53;5009424;28;20030;-67
2022/03/09 02:35:44;;;;;;;16.38;9.13;;;;;;;-142.75;100.00;79094.69;5009479;28;20456;-67
2022/03/09 02:38:10;;;;;;;17.97;10.13;;;;;;;-142.75;100.00;79100.59;5009227;28;20018;-67
2022/03/09 02:40:35;;;;;;;18.20;10.80;;;;;;;-142.75;100.00;79100.59;5010734;28;20587;-67
2022/03/09 02:43:00;;;;;;;17.25;9.95;;;;;;;-142.75;100.00;79102.56;5010656;28;20028;-66
2022/03/09 02:45:26;;;;;;;15.15;9.32;;;;;;;-142.75;100.00;79116.34;5010518;28;20030;-67
2022/03/09 02:47:51;;;;;;;17.05;10.13;;;;;;;-142.75;100.00;79122.25;5010871;28;20431;-66
2022/03/09 02:50:16;;;;;;;17.00;10.03;;;;;;;-142.75;100.00;79126.19;5014127;28;20033;-67
2022/03/09 02:52:42;;;;;;;19.33;9.50;;;;;;;-142.75;100.00;79134.06;5013959;28;20620;-67
2022/03/09 02:55:09;;;;;;;;;;;;;;;-142.75;100.00;79130.13;5014570;28;20534;-67
2022/03/09 02:57:35;;;;;;;12.88;7.40;;;;;;;-142.75;100.00;79139.97;5013937;28;19982;-67
2022/03/09 03:00:00;;;;;;;22.20;10.57;;;;;;;-142.75;100.00;79138.00;5013774;28;20105;-67
2022/03/09 03:02:25;;;;;;;17.05;9.25;;;;;;;-142.75;100.00;79134.06;5013848;28;20112;-67
2022/03/09 03:04:51;;;;;;;16.90;9.88;;;;;;;-142.75;100.00;79130.13;5014051;28;20030;-67
2022/03/09 03:07:16;;;;;;;14.23;9.00;;;;;;;-142.75;100.00;79138.00;5013922;28;20022;-67
2022/03/09 03:09:41;;;;;;;18.63;9.77;;;;;;;-142.75;100.00;79143.91;5013513;28;20022;-67
2022/03/09 03:12:07;;;;;;;17.33;10.20;;;;;;;-142.75;100.00;79134.06;5013849;28;20508;-67
2022/03/09 03:14:32;;;;;;;20.58;10.80;;;;;;;-142.75;100.00;79134.06;5035915;22;20312;-69
2022/03/09 03:16:57;;;;;;;17.37;9.37;;;;;;;-142.75;100.00;79134.06;5012196;28;20507;-67
2022/03/09 03:19:23;;;;;;;18.30;10.43;;;;;;;-142.75;100.00;79124.22;5013140;28;20349;-69
2022/03/09 03:21:48;;;;;;;14.80;10.23;;;;;;;-142.75;100.00;79112.41;5013464;28;20396;-69
2022/03/09 03:24:13;;;;;;;19.25;9.88;;;;;;;-142.75;100.00;79104.53;5005113;28;20531;-68
2022/03/09 03:26:38;;;;;;;17.83;10.00;;;;;;;-142.75;100.00;79110.44;4999999;28;20025;-70
2022/03/09 03:29:04;;;;;;;16.53;9.13;;;;;;;-142.75;100.00;79106.50;5013061;28;20790;-68
2022/03/09 03:31:29;;;;;;;16.60;9.18;;;;;;;-142.75;100.00;79110.44;5013226;28;20273;-69
2022/03/09 03:33:55;;;;;;;14.63;9.00;;;;;;;-142.75;100.00;79120.28;5012035;28;20025;-68
2022/03/09 03:36:20;;;;;;;16.77;9.40;;;;;;;-142.75;100.00;79136.03;5008935;28;20455;-68
2022/03/09 03:38:46;;;;;;;17.73;10.50;;;;;;;-142.75;100.00;79141.94;4994291;28;20026;-69
2022/03/09 03:41:11;;;;;;;18.00;8.77;;;;;;;-142.75;100.00;79157.72;4993648;28;20280;-68
2022/03/09 03:43:37;;;;;;;18.02;9.80;;;;;;;-142.75;100.00;79157.72;5001050;28;20033;-69
2022/03/09 03:46:02;;;;;;;17.10;9.57;;;;;;;-142.75;100.00;79165.59;5011674;28;20452;-70
2022/03/09 03:48:27;;;;;;;18.55;10.20;;;;;;;-142.75;100.00;79171.50;4993073;28;20280;-68
2022/03/09 03:50:52;;;;;;;17.40;9.80;;;;;;;-142.75;100.00;79167.56;4994635;28;20030;-68
2022/03/09 03:53:18;;;;;;;17.17;9.77;;;;;;;-142.75;100.00;79169.53;5012765;28;20277;-69
2022/03/09 03:55:44;;;;;;;17.60;10.10;;;;;;;-142.75;100.00;79165.59;5006270;28;20289;-69
2022/03/09 03:58:09;;;;;;;;;;;;;;;-142.75;100.00;79181.34;5012827;28;20040;-68
2022/03/09 04:00:35;;;;;;;19.30;10.40;;;;;;;-142.75;100.00;79189.22;5012027;28;19913;-71
2022/03/09 04:03:00;;;;;;;16.95;9.73;;;;;;;-142.75;100.00;79185.28;5011222;28;20737;-69
2022/03/09 04:05:26;;;;;;;16.33;9.90;;;;;;;-142.75;100.00;79185.28;4999351;28;20100;-69
2022/03/09 04:07:51;;;;;;;15.40;8.68;;;;;;;-142.75;100.00;79175.44;5011062;28;20033;-67
2022/03/09 04:10:16;;;;;;;15.90;8.68;;;;;;;-142.75;100.00;79165.59;4999558;28;20065;-69
2022/03/09 04:12:42;;;;;;;15.27;9.45;;;;;;;-142.75;100.00;79175.44;5010232;28;20396;-70
2022/03/09 04:15:07;;;;;;;20.75;10.07;;;;;;;-142.75;100.00;79157.72;5002598;28;20030;-68
2022/03/09 04:17:43;;;;;;;15.32;9.40;;;;;;;-142.75;100.00;79147.84;5012366;28;20026;-68
2022/03/09 04:20:10;;;;;;;18.23;9.70;;;;;;;-142.75;100.00;79141.94;5010761;28;20522;-70
2022/03/09 04:22:36;;;;;;;20.67;10.37;;;;;;;-142.75;100.00;79141.94;5012264;28;20029;-68
2022/03/09 04:25:02;;;;;;;15.20;9.43;;;;;;;-142.75;100.00;79145.88;5012214;28;20029;-68
2022/03/09 04:27:28;;;;;;;19.40;10.07;;;;;;;-142.75;100.00;79147.84;5012169;28;20393;-68
2022/03/09 04:29:53;;;;;;;17.13;10.13;;;;;;;-142.75;100.00;79143.91;5011854;28;20033;-68
2022/03/09 04:32:19;;;;;;;15.63;10.00;;;;;;;-142.75;100.00;79139.97;5010891;28;20030;-68
2022/03/09 04:34:44;;;;;;;19.23;10.20;;;;;;;-142.75;100.00;79136.03;5012038;28;20034;-69
2022/03/09 04:37:09;;;;;;;14.40;8.98;;;;;;;-142.75;100.00;79132.09;5011980;28;20506;-69
2022/03/09 04:39:34;;;;;;;17.55;9.55;;;;;;;-142.75;100.00;79130.13;5006625;28;20030;-69
2022/03/09 04:42:00;;;;;;;16.77;8.93;;;;;;;-142.75;100.00;79124.22;5000828;28;20157;-71
2022/03/09 04:44:25;;;;;;;17.52;9.93;;;;;;;-142.75;100.00;79124.22;5011930;28;20065;-68
2022/03/09 04:46:50;;;;;;;29.10;10.53;;;;;;;-142.75;100.00;79134.06;5010535;28;20018;-70
2022/03/09 04:49:15;;;;;;;16.57;8.97;;;;;;;-142.75;100.00;79145.88;5011620;28;20620;-69
2022/03/09 04:51:41;;;;;;;18.33;10.40;;;;;;;-142.75;100.00;79161.66;5010340;28;20076;-68
2022/03/09 04:54:06;;;;;;;27.30;9.90;;;;;;;-142.75;100.00;79149.81;5011692;28;20053;-69
2022/03/09 04:56:32;;;;;;;18.50;10.13;;;;;;;-142.75;100.00;79149.81;5011688;28;20148;-69
2022/03/09 04:58:57;;;;;;;17.80;10.40;;;;;;;-142.75;100.00;79153.75;5011362;28;20041;-69
2022/03/09 05:01:22;;;;;;;19.02;10.05;;;;;;;-142.75;100.00;79167.56;5001365;28;20027;-68
2022/03/09 05:03:48;;;;;;;18.17;9.90;;;;;;;-142.75;100.00;79167.56;4991920;28;20041;-69
2022/03/09 05:06:14;;;;;;;17.27;9.37;;;;;;;-142.75;100.00;79165.59;4991936;28;20270;-69
2022/03/09 05:08:40;;;;;;;17.77;10.30;;;;;;;-142.75;100.00;79181.34;4994466;28;20072;-71
2022/03/09 05:11:05;;;;;;;16.55;9.35;;;;;;;-142.75;100.00;79185.28;5011486;28;20026;-68
2022/03/09 05:13:30;;;;;;;14.83;9.53;;;;;;;-142.75;100.00;79189.22;5011249;28;20480;-68
2022/03/09 05:15:56;;;;;;;19.97;9.80;;;;;;;-142.75;100.00;79191.19;5011379;28;20268;-68
2022/03/09 05:18:21;;;;;;;23.15;9.93;;;;;;;-142.75;100.00;79183.31;5011174;28;20464;-69
2022/03/09 05:20:47;;;;;;;18.23;10.88;;;;;;;-142.75;100.00;79173.47;5011317;28;20057;-71
2022/03/09 05:23:12;;;;;;;17.90;9.32;;;;;;;-142.75;100.00;79175.44;5006147;28;20180;-68
2022/03/09 05:25:38;;;;;;;21.10;10.13;;;;;;;-142.75;100.00;79179.38;5009978;28;20543;-69
2022/03/09 05:28:03;;;;;;;21.00;9.20;;;;;;;-142.75;100.00;79181.34;4994024;28;20022;-70
2022/03/09 05:30:29;;;;;;;16.52;10.60;;;;;;;-142.75;100.00;79193.16;4991915;28;20041;-68
2022/03/09 05:32:55;;;;;;;14.57;9.00;;;;;;;-142.75;100.00;79206.94;4993103;28;20026;-68
2022/03/09 05:35:20;;;;;;;;;;;;;;;-142.75;100.00;79212.84;5005562;28;20403;-68
2022/03/09 05:37:45;;;;;;;17.27;9.97;;;;;;;-142.75;100.00;79228.63;4995618;28;19917;-69
2022/03/09 05:40:12;;;;;;;17.45;9.90;;;;;;;-142.75;100.00;79216.78;4991452;28;20030;-69
2022/03/09 05:42:38;;;;;;;18.73;10.20;;;;;;;-142.75;100.00;79226.66;5000226;28;20032;-68
2022/03/09 05:45:04;;;;;;;17.13;9.98;;;;;;;-142.75;100.00;79240.44;4998882;28;20112;-69
2022/03/09 05:47:31;;;;;;;16.93;9.23;;;;;;;-142.75;100.00;79236.50;5002437;28;20465;-68
2022/03/09 05:49:56;;;;;;;19.10;10.57;;;;;;;-142.75;100.00;79232.56;4995033;28;20037;-68
2022/03/09 05:52:21;;;;;;;16.55;9.30;;;;;;;-142.75;100.00;79242.41;5010875;28;20030;-68
2022/03/09 05:54:47;;;;;;;17.45;9.93;;;;;;;-142.75;100.00;79234.53;5010863;28;20036;-68
2022/03/09 05:57:13;;;;;;;17.92;9.55;;;;;;;-142.75;100.00;79240.44;5001261;28;20022;-69
2022/03/09 05:59:38;;;;;;;;;;;;;;;-142.75;100.00;79240.44;4991575;28;20031;-68
2022/03/09 06:02:03;;;;;;;17.63;9.43;;;;;;;-142.75;100.00;79238.47;4991345;28;19928;-71
2022/03/09 06:04:29;;;;;;;15.52;8.88;;;;;;;-142.75;100.00;79252.25;4990002;28;20626;-69
2022/03/09 06:06:54;;;;;;;16.30;9.40;;;;;;;-142.75;100.00;79258.16;4989940;28;20029;-69
2022/03/09 06:09:19;;;;;;;22.13;10.83;;;;;;;-142.75;100.00;79264.06;4990902;28;20269;-68
2022/03/09 06:11:45;;;;;;;20.87;11.03;;;;;;;-142.75;100.00;79262.09;4994107;28;20289;-68
2022/03/09 06:14:10;;;;;;;21.77;13.43;;;;;;;-142.75;100.00;79273.91;4990466;28;20270;-69
2022/03/09 06:16:36;;;;;;;16.77;11.27;;;;;;;-142.75;100.00;79271.94;4989088;28;20023;-69
2022/03/09 06:19:01;;;;;;;22.83;12.95;;;;;;;-142.75;100.00;79269.97;4990043;28;20116;-69
2022/03/09 06:21:27;;;;;;;18.60;11.55;;;;;;;-142.75;100.00;79271.94;4990249;28;20038;-68
2022/03/09 06:23:52;;;;;;;20.50;11.38;;;;;;;-142.75;100.00;79275.88;4992116;28;20548;-69
2022/03/09 06:26:17;;;;;;;18.00;11.13;;;;;;;-142.75;100.00;79269.97;4995374;28;20026;-70
2022/03/09 06:28:42;;;;;;;21.30;9.90;;;;;;;-142.75;100.00;79266.03;5012919;28;20109;-68
2022/03/09 06:31:08;;;;;;;21.52;11.13;;;;;;;-142.75;100.00;79244.38;5013134;28;20112;-70
2022/03/09 06:33:33;;;;;;;27.30;12.75;;;;;;;-142.75;100.00;79230.59;5013093;28;20054;-69
2022/03/09 06:35:59;;;;;;;22.05;11.38;;;;;;;-142.75;100.00;79216.78;5012922;28;20057;-68
2022/03/09 06:38:24;;;;;;;20.35;9.95;;;;;;;-142.75;100.00;79193.16;5012710;28;20021;-72
2022/03/09 06:40:50;;;;;;;21.65;10.63;;;;;;;-142.75;100.00;79181.34;5010561;28;20030;-68
2022/03/09 06:43:15;;;;;;;15.95;9.75;;;;;;;-142.75;100.00;79163.63;4993210;28;20081;-69
2022/03/09 06:45:40;;;;;;;15.38;9.65;;;;;;;-142.75;100.00;79149.81;4993447;28;20097;-71
2022/03/09 06:48:07;;;;;;;24.27;9.75;;;;;;;-142.75;100.00;79130.13;4992993;28;20023;-68
2022/03/09 06:50:32;;;;;;;19.60;10.00;;;;;;;-142.75;100.00;79112.41;4993243;28;20387;-68
2022/03/09 06:52:57;;;;;;;15.55;9.55;;;;;;;-142.75;100.00;79106.50;4995902;28;20025;-69
2022/03/09 06:55:23;;;;;;;20.77;9.87;;;;;;;-142.75;100.00;79098.63;5012760;28;20025;-68
2022/03/09 06:57:48;;;;;;;17.67;9.55;;;;;;;-142.75;100.00;79086.78;5011298;28;20034;-68
2022/03/09 07:00:14;;;;;;;17.15;9.32;;;;;;;-142.75;100.00;79076.94;5011401;28;20022;-69
2022/03/09 07:02:40;;;;;;;17.50;10.07;;;;;;;-142.75;100.00;79076.94;5012670;28;20029;-70
2022/03/09 07:05:07;;;;;;;16.27;9.80;;;;;;;-142.75;100.00;79073.00;5012325;28;20028;-68
2022/03/09 07:07:32;;;;;;;18.10;9.47;;;;;;;-142.75;100.00;79053.31;5012629;28;20109;-71
2022/03/09 07:09:58;;;;;;;15.82;9.50;;;;;;;-142.75;100.00;79037.56;5012215;28;20098;-68
2022/03/09 07:12:23;;;;;;;15.85;9.80;;;;;;;-142.75;100.00;79027.69;5012578;28;20155;-68
2022/03/09 07:14:49;;;;;;;17.20;9.43;;;;;;;-142.75;100.00;78996.19;4977251;28;1038320;-68
2022/03/09 07:17:14;;;;;;;14.18;8.82;;;;;;;-142.75;100.00;78984.38;5012028;28;20026;-68
2022/03/09 07:19:39;;;;;;;15.40;8.52;;;;;;;-142.75;100.00;78964.69;5011852;28;20036;-68
2022/03/09 07:22:05;;;;;;;17.67;9.75;;;;;;;-142.75;100.00;78972.56;5008901;28;20053;-68
2022/03/09 07:24:30;;;;;;;16.55;9.02;;;;;;;-142.75;100.00;78966.66;5011473;28;20060;-67
2022/03/09 07:26:56;;;;;;;17.90;8.90;;;;;;;-142.75;100.00;78941.03;5012062;28;20080;-68
2022/03/09 07:29:22;;;;;;;18.73;9.98;;;;;;;-142.75;100.00;78923.31;5013115;28;20273;-67
2022/03/09 07:31:47;;;;;;;19.33;9.50;;;;;;;-142.75;100.00;78909.53;5003499;28;20088;-67
2022/03/09 07:34:13;;;;;;;15.90;9.27;;;;;;;-142.75;100.00;78899.69;4991241;28;20073;-67
2022/03/09 07:36:38;;;;;;;16.15;8.73;;;;;;;-142.75;100.00;78878.00;5012446;28;20768;-68
2022/03/09 07:39:03;;;;;;;21.20;9.73;;;;;;;-142.75;100.00;78864.22;5010765;28;20551;-68
2022/03/09 07:41:29;;;;;;;17.13;9.10;;;;;;;-142.75;100.00;78838.63;4998968;28;20423;-69
2022/03/09 07:43:54;;;;;;;16.25;9.00;;;;;;;-142.75;100.00;78838.63;5009477;28;20021;-67
2022/03/09 07:46:19;;;;;;;20.15;10.25;;;;;;;-142.75;100.00;78805.13;5006942;28;20021;-68
2022/03/09 07:48:45;;;;;;;19.33;9.70;;;;;;;-142.75;100.00;78777.56;5011749;28;20099;-68
2022/03/09 07:51:10;;;;;;;17.27;9.18;;;;;;;-142.75;100.00;78771.66;4991745;28;20034;-67
2022/03/09 07:53:36;;;;;;;18.95;9.10;;;;;;;-142.75;99.36;78773.63;5010224;28;20128;-68
2022/03/09 07:56:01;;;;;;;16.38;9.85;;;;;;;-142.75;98.26;78771.66;5011681;28;20026;-67
2022/03/09 07:58:26;;;;;;;18.95;8.73;;;;;;;-142.75;96.94;78732.25;5011399;28;20033;-67
2022/03/09 08:00:52;;;;;;;16.05;8.95;;;;;;;-142.75;93.23;78724.38;5010654;28;20029;-68
2022/03/09 08:03:17;;;;;;;15.77;9.30;;;;;;;-142.75;94.76;78769.69;5009179;28;20033;-67
2022/03/09 08:05:44;;;;;;;17.95;9.65;;;;;;;-142.75;98.50;78681.06;4994124;28;20029;-68
2022/03/09 08:08:10;;;;;;;16.07;9.20;;;;;;;-142.75;96.68;78641.66;5011436;28;20024;-67
2022/03/09 08:10:35;;;;;;;18.80;9.15;;;;;;;-142.75;93.96;78625.91;4994946;28;20391;-68
2022/03/09 08:13:00;;;;;;;15.35;9.80;;;;;;;-142.75;95.54;78582.59;4994869;28;20022;-69
2022/03/09 08:15:26;;;;;;;15.33;9.17;;;;;;;-142.75;88.70;78551.06;5007533;28;20100;-67
2022/03/09 08:17:51;;;;;;;17.87;9.93;;;;;;;-142.75;88.86;78531.38;5010005;28;20057;-68
2022/03/09 08:20:16;;;;;;;18.67;9.30;;;;;;;-142.75;88.29;78509.72;5010266;28;20276;-67
2022/03/09 08:22:42;;;;;;;17.88;9.73;;;;;;;-142.75;88.61;78488.03;5011384;28;20021;-68
2022/03/09 08:25:08;;;;;;;14.32;9.10;;;;;;;-142.75;84.47;78497.91;4993675;28;20519;-72
2022/03/09 08:27:33;;;;;;;17.98;10.02;;;;;;;-142.75;85.18;78507.75;5001452;28;20034;-67
2022/03/09 08:29:58;;;;;;;15.80;10.37;;;;;;;-142.75;86.96;78503.81;4995512;28;20038;-68
2022/03/09 08:32:24;;;;;;;17.50;10.25;;;;;;;-142.75;85.71;78491.97;5006981;28;20019;-67
2022/03/09 08:34:49;;;;;;;16.47;9.23;;;;;;;-142.75;82.48;78468.34;5000898;28;20034;-67
2022/03/09 08:37:16;;;;;;;16.58;9.55;;;;;;;-142.75;84.15;78452.59;5003830;28;20036;-69
2022/03/09 08:39:47;;;;;;;14.50;9.10;;;;;;;-142.75;84.30;78387.59;5005274;28;20030;-68
2022/03/09 08:42:12;;;;;;;17.37;9.03;;;;;;;-142.75;80.66;78428.97;5010328;28;20084;-68
2022/03/09 08:44:37;;;;;;;18.17;10.45;;;;;;;-142.75;82.54;78387.59;4996694;28;20034;-69
2022/03/09 08:47:04;;;;;;;18.50;9.80;;;;;;;-142.75;83.28;78395.47;5009426;28;20024;-68
2022/03/09 08:49:30;;;;;;;20.87;10.07;;;;;;;-142.75;79.53;78393.50;5010406;28;20036;-68
2022/03/09 08:51:57;;;;;;;17.43;9.47;;;;;;;-142.75;78.67;78428.97;4995455;28;20029;-68
2022/03/09 08:54:22;;;;;;;19.73;10.43;;;;;;;-142.75;79.29;78397.44;4990975;28;20488;-68
2022/03/09 08:56:47;;;;;;;19.37;10.10;;;;;;;-142.75;79.28;78403.38;4990988;28;20037;-72
2022/03/09 08:59:13;;;;;;;17.27;9.97;;;;;;;-142.75;78.06;78389.56;4988347;28;20802;-68
2022/03/09 09:01:38;;;;;;;21.15;10.77;;;;;;;-142.75;78.02;78401.38;4989992;28;20030;-72
2022/03/09 09:04:04;;;;;;;17.95;9.68;;;;;;;-142.75;78.94;78401.38;4991040;28;20060;-69
2022/03/09 09:06:29;;;;;;;18.02;10.25;;;;;;;-142.75;76.86;78367.91;4991007;28;20026;-69
2022/03/09 09:08:54;;;;;;;21.07;10.70;;;;;;;-142.75;80.38;78385.63;4990666;28;20473;-69
2022/03/09 09:11:19;;;;;;;17.83;10.53;;;;;;;-142.75;80.46;78338.38;4991097;28;20278;-70
2022/03/09 09:13:45;;;;;;;17.57;10.80;;;;;;;-142.75;78.18;78332.47;4996900;28;20276;-68
2022/03/09 09:16:10;;;;;;;19.80;12.00;;;;;;;-142.75;78.09;78322.63;5010501;28;20356;-69
2022/03/09 09:18:35;;;;;;;21.95;10.93;;;;;;;-142.75;78.63;78287.16;5010134;28;20313;-69
2022/03/09 09:21:01;;;;;;;16.90;10.80;;;;;;;-142.75;78.90;78249.75;5009334;28;20056;-69
2022/03/09 09:23:26;;;;;;;17.88;11.05;;;;;;;-142.75;76.88;78192.66;5009840;28;20026;-69
2022/03/09 09:25:51;;;;;;;19.02;10.68;;;;;;;-142.75;74.14;78208.41;5010090;28;20030;-69
2022/03/09 09:28:17;;;;;;;21.33;10.63;;;;;;;-142.75;74.88;78176.88;5006081;28;20030;-67
2022/03/09 09:30:43;;;;;;;17.77;11.18;;;;;;;-142.75;74.98;78121.75;5007661;28;20025;-67
2022/03/09 09:33:08;;;;;;;19.65;11.60;;;;;;;-142.75;69.13;78048.88;5008840;28;20026;-70
2022/03/09 09:35:34;;;;;;;23.88;11.75;;;;;;;-142.75;67.59;78031.16;5010218;28;20029;-67
2022/03/09 09:38:06;;;;;;;22.77;11.68;;;;;;;-142.75;65.43;78015.41;4990966;28;20073;-67
2022/03/09 09:40:35;;;;;;;20.53;11.23;;;;;;;-142.75;62.49;77952.41;4990530;28;20097;-68
2022/03/09 09:43:07;;;;;;;20.20;11.57;;;;;;;-142.75;62.85;77932.72;4990498;28;20037;-72
2022/03/09 09:45:34;;;;;;;20.20;10.87;;;;;;;-142.75;61.59;77887.41;5009176;28;20045;-70
2022/03/09 09:48:00;;;;;;;19.45;11.55;;;;;;;-142.75;60.22;77853.94;4999856;28;20101;-68
2022/03/09 09:50:26;;;;;;;19.63;11.50;;;;;;;-142.75;61.31;77816.53;5007545;28;20037;-68
2022/03/09 09:52:51;;;;;;;22.17;12.32;;;;;;;-142.75;57.71;77763.38;4994509;28;20030;-68
2022/03/09 09:55:16;;;;;;;22.35;12.55;;;;;;;-142.75;56.35;77745.66;4990562;28;20026;-66
2022/03/09 09:57:42;;;;;;;24.23;12.75;;;;;;;-142.75;55.06;77739.75;4993578;28;20477;-68
2022/03/09 10:00:08;;;;;;;22.13;12.57;;;;;;;-142.75;56.25;77751.56;4994138;28;20875;-67
2022/03/09 10:02:36;;;;;;;22.17;12.73;;;;;;;-142.75;54.94;77716.09;5013617;28;20145;-67
2022/03/09 10:05:02;;;;;;;26.33;12.88;;;;;;;-142.75;55.29;77716.09;5014017;28;20025;-68
2022/03/09 10:07:27;;;;;;;24.08;12.75;;;;;;;-142.75;56.74;77702.31;5013716;28;20113;-67
2022/03/09 10:09:52;;;;;;;23.02;12.90;;;;;;;-142.75;53.43;77645.22;5010013;28;20034;-68
2022/03/09 10:12:27;;;;;;;29.85;14.25;;;;;;;-142.75;53.93;77733.84;5013344;28;20124;-68
2022/03/09 10:14:54;;;;;;;25.50;14.13;;;;;;;-142.75;56.88;77672.78;5013488;28;20026;-67
2022/03/09 10:17:25;;;;;;;24.55;12.30;;;;;;;-142.75;54.82;77672.78;5013728;28;20037;-67
2022/03/09 10:19:55;;;;;;;23.63;13.60;;;;;;;-142.75;54.28;77657.03;5006637;28;20029;-67
2022/03/09 10:22:28;;;;;;;26.00;13.90;;;;;;;-142.75;53.71;77674.75;5013634;28;20076;-68
2022/03/09 10:25:00;;;;;;;27.85;14.48;;;;;;;-142.75;56.85;77590.09;5013399;28;20026;-69
2022/03/09 10:27:42;;;;;;;27.50;14.23;;;;;;;-142.75;53.02;77560.56;5013524;28;20425;-67
2022/03/09 10:30:09;;;;;;;28.88;14.45;;;;;;;-142.75;52.11;77546.78;5011890;28;20052;-68
2022/03/09 10:33:02;;;;;;;23.77;12.75;;;;;;;-142.75;54.06;77534.97;5009671;28;20435;-69
2022/03/09 10:35:30;;;;;;;29.05;13.98;;;;;;;-142.75;52.60;77523.16;5016425;23;20129;-67
2022/03/09 10:38:26;;;;;;;27.08;14.13;;;;;;;-142.75;49.75;77523.16;5012584;28;20120;-67
2022/03/09 10:40:55;;;;;;;28.17;15.32;;;;;;;-142.75;51.32;77495.59;5010971;28;20049;-67
2022/03/09 10:43:29;;;;;;;25.25;13.68;;;;;;;-142.75;53.63;77464.09;5015383;28;20026;-67
2022/03/09 10:46:05;;;;;;;26.45;13.77;;;;;;;-142.75;55.17;77408.94;5013758;28;20026;-67
2022/03/09 10:49:02;;;;;;;31.58;14.20;;;;;;;-142.75;48.56;77377.44;5013784;28;20025;-68
2022/03/09 10:51:30;;;;;;;25.95;13.45;;;;;;;-142.75;49.91;77345.94;5013974;28;20026;-66
2022/03/09 10:53:56;;;;;;;24.67;13.80;;;;;;;-142.75;48.21;77349.88;5012593;28;20041;-67
2022/03/09 10:56:22;;;;;;;26.83;14.60;;;;;;;-142.75;48.18;77387.28;5013890;28;20029;-67
2022/03/09 10:58:48;;;;;;;30.85;15.25;;;;;;;-142.75;48.98;77408.94;5013058;28;20096;-68
2022/03/09 11:01:17;;;;;;;27.60;14.60;;;;;;;-142.75;51.78;77324.28;5013821;28;20026;-68